Time;durP1;ratioP1;P1;durP2;ratioP2;P2;SDS_P1;SDS_P2;PMS_P1;PMS_P2;Temp;Humidity;BMP_temperature;BMP_pressure;BME280_temperature;BME280_humidity;BME280_pressure;Samples;Min_cycle;Max_cycle;Signal;HPM_P1;HPM_P2
2022/07/10 00:01:24;;;;;;;6.95;1.50;;;14.10;99.90;;;;;;5054023;28;20480;-74
2022/07/10 00:03:50;;;;;;;3.92;1.15;;;14.10;99.90;;;;;;5055007;28;20131;-74
2022/07/10 00:06:16;;;;;;;10.52;1.38;;;14.10;99.90;;;;;;5055752;28;20036;-75
2022/07/10 00:08:44;;;;;;;7.05;1.60;;;14.00;99.90;;;;;;5057051;28;20045;-74
2022/07/10 00:11:10;;;;;;;6.93;1.30;;;14.00;99.90;;;;;;5046487;28;20574;-74
2022/07/10 00:13:36;;;;;;;7.03;1.52;;;13.90;99.90;;;;;;5046136;28;20127;-74
2022/07/10 00:16:01;;;;;;;4.97;1.05;;;13.90;99.90;;;;;;5034238;28;20041;-74
2022/07/10 00:18:28;;;;;;;7.88;1.63;;;13.80;99.90;;;;;;5038503;28;20044;-74
2022/07/10 00:20:54;;;;;;;6.70;1.35;;;13.80;99.90;;;;;;5044545;28;20103;-74
2022/07/10 00:23:20;;;;;;;9.70;1.63;;;13.80;99.90;;;;;;5067061;28;20135;-74
2022/07/10 00:25:45;;;;;;;7.50;1.55;;;13.70;99.90;;;;;;5055861;28;20119;-74
2022/07/10 00:28:11;;;;;;;8.68;2.20;;;13.70;99.90;;;;;;5040098;28;20074;-75
2022/07/10 00:30:37;;;;;;;8.07;1.80;;;13.60;99.90;;;;;;5055358;28;20044;-73
2022/07/10 00:33:03;;;;;;;3.88;1.45;;;13.60;99.90;;;;;;5076368;28;20093;-73
2022/07/10 00:35:29;;;;;;;5.68;1.17;;;13.60;99.90;;;;;;5057814;28;20043;-73
2022/07/10 00:37:54;;;;;;;6.53;1.33;;;13.60;99.90;;;;;;5055514;28;20378;-74
2022/07/10 00:40:20;;;;;;;5.07;1.27;;;13.60;99.90;;;;;;5041531;28;20036;-74
2022/07/10 00:42:46;;;;;;;5.57;1.25;;;13.60;99.90;;;;;;5064157;28;20446;-74
2022/07/10 00:45:11;;;;;;;5.07;1.50;;;13.60;99.90;;;;;;5043060;28;20040;-73
2022/07/10 00:47:37;;;;;;;6.68;1.40;;;13.50;99.90;;;;;;5040776;28;20083;-75
2022/07/10 00:50:05;;;;;;;4.43;1.17;;;13.50;99.90;;;;;;5061542;28;20044;-72
2022/07/10 00:52:30;;;;;;;7.32;1.48;;;13.50;99.90;;;;;;5056126;28;20067;-74
2022/07/10 00:54:57;;;;;;;7.28;1.13;;;13.50;99.90;;;;;;5070334;28;20713;-74
2022/07/10 00:57:23;;;;;;;8.52;1.63;;;13.50;99.90;;;;;;5067797;28;20046;-74
2022/07/10 00:59:49;;;;;;;7.93;1.50;;;13.40;99.90;;;;;;5071635;28;20485;-74
2022/07/10 01:02:16;;;;;;;5.25;1.05;;;13.50;99.90;;;;;;5064353;28;20040;-74
2022/07/10 01:04:42;;;;;;;6.85;1.50;;;13.50;99.90;;;;;;5063082;28;20054;-74
2022/07/10 01:07:07;;;;;;;9.55;1.48;;;13.60;99.90;;;;;;5070696;28;20511;-74
2022/07/10 01:09:34;;;;;;;8.23;1.60;;;13.60;99.90;;;;;;5064108;28;20203;-74
2022/07/10 01:12:00;;;;;;;4.57;1.27;;;13.70;99.90;;;;;;5058006;28;20536;-74
2022/07/10 01:14:26;;;;;;;6.90;1.50;;;13.70;99.90;;;;;;5055745;28;20045;-74
2022/07/10 01:16:53;;;;;;;5.63;1.23;;;13.70;99.90;;;;;;5054400;28;20462;-73
2022/07/10 01:19:19;;;;;;;7.07;1.10;;;13.70;99.90;;;;;;5054421;28;20493;-74
2022/07/10 01:21:44;;;;;;;7.93;1.40;;;13.70;99.90;;;;;;5048148;28;20048;-75
2022/07/10 01:24:11;;;;;;;5.47;1.67;;;13.70;99.90;;;;;;5049573;28;20452;-74
2022/07/10 01:26:38;;;;;;;7.25;1.65;;;13.60;99.90;;;;;;5051778;28;20495;-74
2022/07/10 01:29:05;;;;;;;8.68;1.60;;;13.60;99.90;;;;;;5052156;28;20048;-74
2022/07/10 01:31:31;;;;;;;6.15;1.38;;;13.50;99.90;;;;;;5052689;28;20046;-74
2022/07/10 01:33:58;;;;;;;7.78;1.50;;;13.50;99.90;;;;;;5026913;28;20048;-73
2022/07/10 01:36:24;;;;;;;7.28;1.55;;;13.50;99.90;;;;;;5050896;28;20158;-74
2022/07/10 01:38:54;;;;;;;5.03;1.55;;;13.40;99.90;;;;;;5023062;28;20085;-74
2022/07/10 01:41:19;;;;;;;6.60;1.70;;;13.40;99.90;;;;;;5049206;28;20390;-74
2022/07/10 01:43:45;;;;;;;6.30;1.75;;;13.40;99.90;;;;;;5052568;28;20043;-73
2022/07/10 01:46:12;;;;;;;6.15;1.50;;;13.40;99.90;;;;;;5052701;28;20127;-75
2022/07/10 01:48:41;;;;;;;8.30;1.40;;;13.40;99.90;;;;;;5052540;28;20555;-74
2022/07/10 01:51:08;;;;;;;6.75;1.55;;;13.40;99.90;;;;;;5045224;28;20429;-74
2022/07/10 01:53:34;;;;;;;6.38;1.33;;;13.40;99.90;;;;;;5047066;28;20497;-73
2022/07/10 01:56:08;;;;;;;6.10;1.40;;;13.40;99.90;;;;;;5071369;28;20076;-73
2022/07/10 01:58:34;;;;;;;8.20;2.17;;;13.30;99.90;;;;;;5070812;28;20405;-74
2022/07/10 02:01:00;;;;;;;8.73;1.48;;;13.30;99.90;;;;;;5052925;28;20055;-73
2022/07/10 02:06:10;;;;;;;12.57;1.95;;;13.40;99.90;;;;;;5048987;28;20049;-73
2022/07/10 02:08:36;;;;;;;7.03;1.25;;;13.40;99.90;;;;;;5052466;28;20036;-74
2022/07/10 02:11:01;;;;;;;7.53;2.22;;;13.40;99.90;;;;;;5069930;28;20044;-74
2022/07/10 02:13:27;;;;;;;8.27;1.40;;;13.50;99.90;;;;;;5048087;28;20040;-74
2022/07/10 02:15:53;;;;;;;6.65;1.40;;;13.40;99.90;;;;;;5052626;28;20413;-73
2022/07/10 02:18:19;;;;;;;3.60;1.20;;;13.30;99.90;;;;;;5051127;28;20044;-74
2022/07/10 02:20:45;;;;;;;6.03;1.50;;;13.30;99.90;;;;;;5051457;28;20041;-74
2022/07/10 02:23:11;;;;;;;6.13;1.27;;;13.30;99.90;;;;;;5047583;28;20063;-74
2022/07/10 02:25:36;;;;;;;8.60;1.63;;;13.30;99.90;;;;;;5051949;28;20093;-74
2022/07/10 02:28:02;;;;;;;5.18;1.30;;;13.20;99.90;;;;;;5053161;28;20383;-73
2022/07/10 02:30:28;;;;;;;5.72;1.42;;;13.20;99.90;;;;;;5048636;28;20413;-73
2022/07/10 02:32:53;;;;;;;9.25;1.63;;;13.10;99.90;;;;;;5051131;28;20036;-73
2022/07/10 02:35:19;;;;;;;8.93;1.30;;;13.10;99.90;;;;;;5051594;28;20045;-73
2022/07/10 02:37:44;;;;;;;5.95;1.48;;;13.10;99.90;;;;;;5058485;23;20534;-71
2022/07/10 02:40:10;;;;;;;9.23;1.33;;;13.00;99.90;;;;;;5045325;28;20063;-71
2022/07/10 02:42:36;;;;;;;9.25;1.85;;;13.00;99.90;;;;;;5046902;28;20052;-71
2022/07/10 02:45:03;;;;;;;4.63;1.35;;;12.90;99.90;;;;;;5047203;28;20041;-71
2022/07/10 02:47:28;;;;;;;3.85;1.40;;;12.90;99.90;;;;;;5044146;28;20593;-71
2022/07/10 02:49:54;;;;;;;7.90;1.70;;;12.80;99.90;;;;;;5048804;28;20048;-72
2022/07/10 02:52:19;;;;;;;6.18;1.40;;;12.80;99.90;;;;;;5050098;28;20040;-72
2022/07/10 02:54:45;;;;;;;8.20;1.15;;;12.70;99.90;;;;;;5047570;28;20124;-71
2022/07/10 02:57:10;;;;;;;4.57;1.13;;;12.70;99.90;;;;;;5047052;28;20041;-72
2022/07/10 02:59:36;;;;;;;8.52;1.60;;;12.80;99.90;;;;;;5048363;28;20049;-72
2022/07/10 03:02:02;;;;;;;4.22;1.35;;;12.80;99.90;;;;;;5023817;28;20052;-73
2022/07/10 03:04:27;;;;;;;7.18;1.42;;;12.80;99.90;;;;;;5042699;28;20067;-73
2022/07/10 03:06:53;;;;;;;7.07;1.25;;;12.80;99.90;;;;;;5045175;28;20037;-72
2022/07/10 03:09:19;;;;;;;5.97;1.40;;;12.80;99.90;;;;;;5041916;28;20123;-72
2022/07/10 03:11:44;;;;;;;8.82;1.63;;;12.90;99.90;;;;;;5050911;28;20044;-72
2022/07/10 03:14:10;;;;;;;8.48;1.52;;;12.90;99.90;;;;;;5045136;28;20036;-72
2022/07/10 03:16:36;;;;;;;5.90;1.58;;;12.90;99.90;;;;;;5050287;28;20036;-72
2022/07/10 03:19:01;;;;;;;5.75;1.27;;;12.90;99.90;;;;;;5049236;28;20497;-73
2022/07/10 03:21:27;;;;;;;4.82;1.05;;;12.90;99.90;;;;;;5049633;28;20044;-72
2022/07/10 03:23:53;;;;;;;9.05;1.75;;;13.00;99.90;;;;;;5047620;28;20041;-72
2022/07/10 03:26:18;;;;;;;6.88;1.30;;;13.00;99.90;;;;;;5034507;28;20040;-72
2022/07/10 03:28:44;;;;;;;7.35;1.10;;;13.00;99.90;;;;;;5044427;28;20044;-73
2022/07/10 03:31:09;;;;;;;6.40;1.73;;;13.00;99.90;;;;;;5040748;28;20048;-73
2022/07/10 03:33:35;;;;;;;5.20;1.25;;;13.10;99.90;;;;;;5031403;28;20040;-72
2022/07/10 03:36:03;;;;;;;6.57;1.20;;;13.10;99.90;;;;;;5048547;28;20052;-73
2022/07/10 03:38:29;;;;;;;5.70;1.38;;;13.10;99.90;;;;;;5047041;28;20056;-73
2022/07/10 03:40:54;;;;;;;10.25;1.65;;;13.20;99.90;;;;;;5045552;28;20406;-72
2022/07/10 03:43:20;;;;;;;5.72;1.40;;;13.30;99.90;;;;;;5039174;28;20067;-72
2022/07/10 03:45:45;;;;;;;11.15;1.63;;;13.30;99.90;;;;;;5047842;28;20033;-73
2022/07/10 03:48:11;;;;;;;5.90;1.17;;;13.30;99.90;;;;;;5047293;28;20037;-73
2022/07/10 03:50:37;;;;;;;6.80;1.38;;;13.30;99.90;;;;;;5047333;28;20037;-73
2022/07/10 03:53:02;;;;;;;6.82;0.95;;;13.40;99.90;;;;;;5047832;28;20773;-73
2022/07/10 03:55:28;;;;;;;7.57;1.50;;;13.50;99.90;;;;;;5047463;28;20051;-73
2022/07/10 03:57:54;;;;;;;5.50;1.00;;;13.50;99.90;;;;;;5049319;28;20041;-73
2022/07/10 04:00:21;;;;;;;8.30;1.17;;;13.50;99.90;;;;;;5048160;28;20051;-73
2022/07/10 04:02:48;;;;;;;6.55;1.67;;;13.60;99.90;;;;;;5047770;28;20045;-73
2022/07/10 04:05:14;;;;;;;4.28;1.05;;;13.60;99.90;;;;;;5041448;28;20096;-73
2022/07/10 04:07:40;;;;;;;5.18;1.13;;;13.60;99.90;;;;;;5044859;28;20049;-73
2022/07/10 04:10:06;;;;;;;4.32;1.20;;;13.70;99.90;;;;;;5047951;28;20037;-73
2022/07/10 04:12:32;;;;;;;8.35;1.45;;;13.70;99.90;;;;;;5048149;28;20037;-73
2022/07/10 04:14:57;;;;;;;6.45;1.30;;;13.70;99.90;;;;;;5045692;28;20040;-73
2022/07/10 04:17:23;;;;;;;6.07;1.17;;;13.80;99.90;;;;;;5035718;28;20048;-73
2022/07/10 04:19:48;;;;;;;5.45;1.10;;;13.80;99.90;;;;;;5034382;28;20048;-73
2022/07/10 04:22:14;;;;;;;4.88;1.20;;;13.80;99.90;;;;;;5031100;28;20475;-73
2022/07/10 04:24:39;;;;;;;6.07;1.08;;;13.90;99.90;;;;;;5045376;28;20402;-73
2022/07/10 04:27:06;;;;;;;6.95;1.75;;;13.90;99.90;;;;;;5048394;28;20065;-72
2022/07/10 04:29:32;;;;;;;7.43;1.25;;;14.00;99.90;;;;;;5030747;28;20036;-73
2022/07/10 04:31:57;;;;;;;6.38;1.55;;;14.00;99.90;;;;;;5045140;28;20045;-73
2022/07/10 04:34:23;;;;;;;6.45;1.52;;;14.00;99.90;;;;;;5045103;28;20401;-72
2022/07/10 04:36:48;;;;;;;8.05;1.27;;;14.10;99.90;;;;;;5048345;28;20190;-72
2022/07/10 04:39:14;;;;;;;4.18;1.13;;;14.10;99.90;;;;;;5035835;28;20049;-73
2022/07/10 04:41:40;;;;;;;4.57;1.30;;;14.10;99.90;;;;;;5046168;28;20557;-73
2022/07/10 04:44:05;;;;;;;5.32;1.20;;;14.20;99.90;;;;;;5041683;28;20430;-72
2022/07/10 04:46:31;;;;;;;5.82;1.33;;;14.20;99.90;;;;;;5043291;28;20040;-73
2022/07/10 04:48:57;;;;;;;6.63;1.25;;;14.30;99.90;;;;;;5042081;28;20414;-73
2022/07/10 04:51:23;;;;;;;7.00;1.55;;;14.30;99.90;;;;;;5046517;28;20047;-73
2022/07/10 04:53:49;;;;;;;6.60;1.45;;;14.40;99.90;;;;;;5035666;28;20041;-73
2022/07/10 04:56:15;;;;;;;6.25;1.20;;;14.40;99.90;;;;;;5044134;28;20055;-73
2022/07/10 04:58:40;;;;;;;3.55;1.20;;;14.50;99.90;;;;;;5048117;28;20057;-73
2022/07/10 05:01:06;;;;;;;14.63;2.15;;;14.60;99.90;;;;;;5052924;28;20037;-73
2022/07/10 05:03:32;;;;;;;7.32;1.60;;;14.70;99.90;;;;;;5046882;28;20041;-73
2022/07/10 05:05:57;;;;;;;6.68;1.20;;;14.80;99.90;;;;;;5041923;28;20048;-73
2022/07/10 05:08:23;;;;;;;6.00;1.65;;;14.80;99.90;;;;;;5034332;28;20021;-73
2022/07/10 05:10:48;;;;;;;4.70;1.40;;;14.90;99.90;;;;;;5036120;28;20091;-73
2022/07/10 05:13:14;;;;;;;7.65;1.35;;;14.90;99.90;;;;;;5052722;28;20051;-73
2022/07/10 05:15:39;;;;;;;5.63;1.27;;;15.00;99.90;;;;;;5051289;28;20063;-73
2022/07/10 05:18:05;;;;;;;5.68;1.25;;;15.10;99.90;;;;;;5048351;28;20047;-73
2022/07/10 05:20:31;;;;;;;6.93;1.75;;;15.10;99.90;;;;;;5036853;28;20037;-73
2022/07/10 05:22:56;;;;;;;5.35;1.10;;;15.10;99.90;;;;;;5050157;28;20046;-73
2022/07/10 05:25:22;;;;;;;8.02;1.98;;;15.20;99.90;;;;;;5038585;28;20034;-73
2022/07/10 05:27:48;;;;;;;9.10;1.90;;;15.20;99.90;;;;;;5051813;28;20029;-73
2022/07/10 05:30:13;;;;;;;6.70;1.45;;;15.30;99.90;;;;;;5051974;28;20043;-73
2022/07/10 05:32:48;;;;;;;5.95;1.58;;;15.20;99.90;;;;;;5051880;28;20120;-73
2022/07/10 05:35:14;;;;;;;7.47;1.55;;;15.30;99.90;;;;;;5051983;28;20052;-73
2022/07/10 05:37:40;;;;;;;9.23;1.70;;;15.40;99.90;;;;;;5051300;28;20092;-72
2022/07/10 05:40:06;;;;;;;11.50;2.03;;;15.40;99.90;;;;;;5051587;28;20135;-73
2022/07/10 05:42:32;;;;;;;7.47;1.65;;;15.40;99.90;;;;;;5035546;28;20052;-73
2022/07/10 05:44:57;;;;;;;6.68;1.08;;;15.50;99.90;;;;;;5015287;28;20399;-73
2022/07/10 05:47:23;;;;;;;7.03;1.50;;;15.50;99.90;;;;;;5041262;28;20086;-73
2022/07/10 05:49:48;;;;;;;8.40;2.08;;;15.50;99.90;;;;;;5050687;28;20033;-73
2022/07/10 05:52:14;;;;;;;8.98;1.95;;;15.50;99.90;;;;;;5038430;28;20030;-73
2022/07/10 05:54:39;;;;;;;5.80;1.52;;;15.60;99.90;;;;;;5043050;28;20059;-73
2022/07/10 05:57:05;;;;;;;8.75;1.50;;;15.70;99.90;;;;;;5043255;28;20178;-73
2022/07/10 05:59:34;;;;;;;8.52;1.70;;;15.80;99.90;;;;;;5049177;28;20048;-73
2022/07/10 06:02:01;;;;;;;4.97;1.08;;;15.90;99.90;;;;;;5035229;28;20045;-73
2022/07/10 06:04:27;;;;;;;5.93;1.48;;;16.00;99.90;;;;;;5037989;28;20395;-73
2022/07/10 06:06:52;;;;;;;9.77;1.52;;;16.00;99.90;;;;;;5043223;28;20062;-73
2022/07/10 06:09:19;;;;;;;5.25;1.77;;;16.00;99.90;;;;;;5041508;28;20033;-73
2022/07/10 06:11:47;;;;;;;7.97;1.77;;;16.00;99.90;;;;;;5043009;28;20041;-73
2022/07/10 06:14:13;;;;;;;9.52;1.67;;;16.10;99.90;;;;;;5034310;28;20692;-73
2022/07/10 06:16:39;;;;;;;7.50;1.45;;;16.00;99.90;;;;;;5049095;28;20037;-73
2022/07/10 06:19:04;;;;;;;6.95;1.40;;;16.00;99.90;;;;;;5048357;28;20044;-73
2022/07/10 06:21:30;;;;;;;5.45;1.30;;;15.90;99.90;;;;;;5034475;28;20040;-73
2022/07/10 06:23:55;;;;;;;10.63;2.00;;;15.90;99.90;;;;;;5050604;28;20044;-73
2022/07/10 06:26:21;;;;;;;10.45;1.75;;;15.90;99.90;;;;;;5043630;28;20041;-73
2022/07/10 06:28:46;;;;;;;8.07;1.90;;;15.90;99.90;;;;;;5041989;28;20064;-73
2022/07/10 06:31:12;;;;;;;9.73;2.08;;;15.90;99.90;;;;;;5036423;28;20045;-73
2022/07/10 06:33:39;;;;;;;4.72;1.13;;;15.90;99.90;;;;;;5018837;28;20053;-73
2022/07/10 06:36:05;;;;;;;8.68;1.73;;;15.80;99.90;;;;;;5051738;28;20119;-73
2022/07/10 06:38:31;;;;;;;8.75;1.80;;;15.80;99.90;;;;;;5049706;28;20498;-73
2022/07/10 06:40:56;;;;;;;6.20;1.65;;;15.80;99.90;;;;;;5050094;28;20087;-72
2022/07/10 06:43:22;;;;;;;7.88;1.20;;;15.80;99.90;;;;;;5051592;28;20049;-72
2022/07/10 06:45:48;;;;;;;7.30;1.90;;;15.90;99.90;;;;;;5050843;28;20033;-73
2022/07/10 06:48:14;;;;;;;8.15;1.40;;;15.90;99.90;;;;;;5049975;28;20086;-73
2022/07/10 06:50:41;;;;;;;5.90;1.50;;;16.00;99.90;;;;;;5032575;28;20072;-72
2022/07/10 06:53:07;;;;;;;9.65;1.67;;;16.00;99.90;;;;;;5048551;28;20041;-73
2022/07/10 06:55:34;;;;;;;6.80;1.77;;;16.10;99.90;;;;;;5032483;28;20411;-72
2022/07/10 06:58:00;;;;;;;8.52;1.45;;;16.10;99.90;;;;;;5050325;28;20041;-72
2022/07/10 07:00:26;;;;;;;6.10;1.77;;;16.10;99.90;;;;;;5050197;28;20389;-72
2022/07/10 07:02:51;;;;;;;6.55;1.45;;;16.10;99.90;;;;;;5038028;28;20132;-73
2022/07/10 07:05:17;;;;;;;8.70;1.75;;;16.10;99.90;;;;;;5037726;28;20459;-73
2022/07/10 07:07:43;;;;;;;6.72;1.45;;;16.10;99.90;;;;;;5048709;28;20559;-73
2022/07/10 07:10:09;;;;;;;4.97;1.33;;;16.20;99.90;;;;;;5049074;28;20049;-72
2022/07/10 07:12:35;;;;;;;7.20;1.20;;;16.10;99.90;;;;;;5051208;28;20658;-73
2022/07/10 07:15:00;;;;;;;6.40;1.58;;;16.20;99.90;;;;;;5050151;28;20113;-73
2022/07/10 07:17:33;;;;;;;5.13;1.20;;;16.10;99.90;;;;;;5050100;28;20483;-73
2022/07/10 07:25:28;;;;;;;6.28;1.73;;;16.20;99.90;;;;;;5049036;28;20044;-72
2022/07/10 07:27:54;;;;;;;4.72;1.02;;;16.10;99.90;;;;;;5021222;28;20041;-73
2022/07/10 07:30:19;;;;;;;4.40;0.90;;;16.30;99.90;;;;;;5041274;28;20049;-73
2022/07/10 07:32:45;;;;;;;6.03;1.52;;;16.40;99.90;;;;;;5046083;28;20033;-73
2022/07/10 07:35:12;;;;;;;5.75;1.40;;;16.50;99.90;;;;;;5049093;28;20657;-73
2022/07/10 07:37:39;;;;;;;3.15;1.00;;;16.50;99.90;;;;;;5049656;28;20085;-73
2022/07/10 07:40:10;;;;;;;5.28;1.23;;;16.50;99.90;;;;;;5048568;28;20083;-73
2022/07/10 07:42:36;;;;;;;5.05;1.20;;;16.50;99.90;;;;;;5047043;28;20037;-73
2022/07/10 07:45:03;;;;;;;3.72;1.05;;;16.30;99.90;;;;;;5049474;28;20029;-73
2022/07/10 07:47:30;;;;;;;3.72;1.27;;;16.20;99.90;;;;;;5048376;28;20119;-73
2022/07/10 07:49:56;;;;;;;4.60;1.20;;;16.10;99.90;;;;;;5044138;28;20409;-73
2022/07/10 07:52:22;;;;;;;5.10;1.52;;;16.20;99.90;;;;;;5043508;28;20094;-72
2022/07/10 07:54:48;;;;;;;4.32;1.10;;;16.30;99.90;;;;;;5049380;28;20094;-72
2022/07/10 07:57:14;;;;;;;2.90;1.00;;;16.20;99.90;;;;;;5031568;28;20530;-72
2022/07/10 07:59:40;;;;;;;2.60;1.20;;;16.30;99.90;;;;;;5047656;28;20139;-69
2022/07/10 08:02:06;;;;;;;5.60;0.90;;;16.40;99.90;;;;;;5046624;28;20044;-68
2022/07/10 08:04:31;;;;;;;4.28;0.98;;;16.50;99.90;;;;;;5047908;28;20855;-68
2022/07/10 08:06:57;;;;;;;3.67;1.00;;;16.50;99.90;;;;;;5048454;28;20040;-69
2022/07/10 08:09:22;;;;;;;4.95;0.88;;;16.60;99.90;;;;;;5049359;28;20051;-69
2022/07/10 08:11:48;;;;;;;4.13;0.98;;;16.70;99.90;;;;;;5053307;28;20068;-68
2022/07/10 08:14:14;;;;;;;4.60;0.93;;;16.60;99.90;;;;;;5052856;28;20534;-68
2022/07/10 08:16:40;;;;;;;6.35;1.08;;;16.50;99.90;;;;;;5052854;28;20083;-68
2022/07/10 08:19:06;;;;;;;4.28;0.93;;;16.70;99.90;;;;;;5050977;28;20032;-69
2022/07/10 08:21:32;;;;;;;6.88;1.38;;;16.70;99.90;;;;;;5051591;28;20878;-73
2022/07/10 08:23:58;;;;;;;4.38;1.10;;;16.90;99.90;;;;;;5027258;28;20402;-69
2022/07/10 08:26:24;;;;;;;3.40;1.15;;;17.10;99.90;;;;;;5052751;28;20418;-69
2022/07/10 08:28:49;;;;;;;3.17;1.13;;;17.10;99.90;;;;;;5046488;28;20045;-69
2022/07/10 08:31:16;;;;;;;3.45;0.85;;;17.20;99.90;;;;;;5038492;28;20029;-69
2022/07/10 08:33:42;;;;;;;4.47;1.33;;;17.20;99.90;;;;;;5051180;28;20119;-69
2022/07/10 08:36:07;;;;;;;4.88;1.05;;;17.30;99.90;;;;;;5050096;28;20028;-69
2022/07/10 08:38:33;;;;;;;4.10;1.15;;;17.30;99.90;;;;;;5048886;28;20101;-69
2022/07/10 08:41:02;;;;;;;4.70;0.98;;;17.40;99.90;;;;;;5048753;28;20033;-69
2022/07/10 08:43:28;;;;;;;3.97;0.82;;;17.30;99.90;;;;;;5046206;28;20056;-69
2022/07/10 08:45:54;;;;;;;4.22;0.90;;;17.30;99.90;;;;;;5051764;28;20090;-69
2022/07/10 08:48:24;;;;;;;4.78;1.10;;;17.30;99.90;;;;;;5038522;28;20243;-69
2022/07/10 08:50:54;;;;;;;4.45;1.20;;;17.30;99.90;;;;;;5046569;28;20111;-68
2022/07/10 08:53:32;;;;;;;4.82;1.00;;;17.20;99.90;;;;;;5047803;28;20052;-68
2022/07/10 08:55:59;;;;;;;3.47;1.30;;;17.20;99.90;;;;;;5046764;28;20482;-68
2022/07/10 08:58:26;;;;;;;2.28;0.98;;;17.20;99.90;;;;;;5042685;28;20083;-68
2022/07/10 09:00:53;;;;;;;3.97;0.93;;;17.00;99.90;;;;;;5047659;28;20029;-68
2022/07/10 09:03:19;;;;;;;3.13;0.90;;;17.30;99.90;;;;;;5047879;28;20051;-68
2022/07/10 09:05:45;;;;;;;3.30;1.10;;;17.40;99.90;;;;;;5049194;28;20059;-69
2022/07/10 09:08:35;;;;;;;4.93;1.40;;;17.50;99.90;;;;;;5035671;28;20048;-68
2022/07/10 09:11:18;;;;;;;3.00;0.90;;;17.60;99.90;;;;;;5053713;28;20123;-68
2022/07/10 09:13:54;;;;;;;3.65;0.80;;;17.60;99.90;;;;;;5051960;28;20044;-68
2022/07/10 09:16:27;;;;;;;1.70;0.70;;;17.60;99.90;;;;;;5050456;28;20126;-69
2022/07/10 09:18:54;;;;;;;2.25;0.80;;;17.40;99.90;;;;;;5033179;28;20041;-68
2022/07/10 09:21:20;;;;;;;2.20;0.90;;;17.40;99.90;;;;;;5048674;28;20492;-69
2022/07/10 09:23:47;;;;;;;5.00;1.10;;;17.50;99.90;;;;;;5050566;28;20047;-69
2022/07/10 09:26:12;;;;;;;3.38;0.90;;;17.60;99.90;;;;;;5047430;28;20055;-68
2022/07/10 09:28:38;;;;;;;2.88;0.80;;;17.70;99.90;;;;;;5048255;28;20116;-68
2022/07/10 09:31:03;;;;;;;2.88;0.90;;;17.80;99.90;;;;;;5038054;28;20041;-68
2022/07/10 09:33:30;;;;;;;2.15;0.90;;;17.60;99.90;;;;;;5052604;28;20033;-68
2022/07/10 09:36:08;;;;;;;3.28;1.10;;;17.90;99.90;;;;;;5051417;28;20144;-68
2022/07/10 09:38:42;;;;;;;3.50;1.10;;;17.80;99.90;;;;;;5051908;28;20053;-68
2022/07/10 09:41:30;;;;;;;4.10;0.98;;;17.70;99.90;;;;;;5053156;28;20112;-68
2022/07/10 09:44:01;;;;;;;3.28;1.10;;;17.70;99.90;;;;;;5053386;28;20033;-68
2022/07/10 09:46:35;;;;;;;3.50;1.00;;;17.60;99.90;;;;;;5050789;28;20033;-68
2022/07/10 09:49:08;;;;;;;2.88;1.30;;;17.30;99.90;;;;;;5032286;28;20044;-68
2022/07/10 09:51:42;;;;;;;3.15;0.98;;;17.40;99.90;;;;;;5051552;28;20082;-68
2022/07/10 09:54:12;;;;;;;3.33;1.00;;;17.30;99.90;;;;;;5052095;28;20045;-68
2022/07/10 09:56:44;;;;;;;4.28;1.35;;;17.10;99.90;;;;;;5051487;28;20055;-68
2022/07/10 09:59:17;;;;;;;1.50;0.63;;;16.90;99.90;;;;;;5043770;28;20029;-68
2022/07/10 10:01:45;;;;;;;4.03;1.10;;;16.90;99.90;;;;;;5045913;28;22023;-68
2022/07/10 10:04:12;;;;;;;1.85;1.00;;;16.80;99.90;;;;;;5048321;28;20216;-68
2022/07/10 10:06:40;;;;;;;3.00;1.00;;;16.60;99.90;;;;;;5039404;28;20052;-68
2022/07/10 10:09:25;;;;;;;2.47;1.05;;;16.70;99.90;;;;;;5039297;28;20076;-68
2022/07/10 10:11:59;;;;;;;2.72;1.33;;;16.50;99.90;;;;;;5051227;28;20041;-68
2022/07/10 10:14:27;;;;;;;3.30;1.10;;;16.60;99.90;;;;;;5037715;28;20713;-67
2022/07/10 10:16:55;;;;;;;1.85;0.90;;;16.70;99.90;;;;;;5042294;28;20086;-68
2022/07/10 10:22:08;;;;;;;1.98;0.90;;;16.80;99.90;;;;;;5045190;28;20386;-68
2022/07/10 10:24:36;;;;;;;3.30;1.25;;;16.90;99.90;;;;;;5049687;28;20041;-68
2022/07/10 10:27:04;;;;;;;2.80;1.30;;;17.10;99.90;;;;;;5038495;28;20750;-68
2022/07/10 10:29:30;;;;;;;2.75;1.40;;;17.10;99.90;;;;;;5051663;28;20129;-68
2022/07/10 10:31:56;;;;;;;4.25;1.50;;;16.90;99.90;;;;;;5051054;28;20132;-66
2022/07/10 10:34:59;;;;;;;5.32;1.65;;;16.80;99.90;;;;;;5045849;28;20044;-66
2022/07/10 10:37:27;;;;;;;2.65;1.40;;;16.90;99.90;;;;;;4969407;28;20084;-68
2022/07/10 10:39:57;;;;;;;4.72;1.55;;;17.10;99.90;;;;;;5031771;28;20064;-69
2022/07/10 10:42:32;;;;;;;3.05;1.60;;;17.30;99.90;;;;;;5048890;28;20037;-69
2022/07/10 10:45:29;;;;;;;3.75;1.40;;;17.40;99.90;;;;;;5040116;28;20052;-69
2022/07/10 10:48:10;;;;;;;4.40;1.88;;;17.60;99.90;;;;;;5031039;28;20041;-69
2022/07/10 10:50:39;;;;;;;2.65;1.40;;;17.90;99.90;;;;;;5047862;28;20037;-68
2022/07/10 10:53:15;;;;;;;5.18;1.70;;;18.00;99.90;;;;;;5043978;28;20076;-69
2022/07/10 10:56:04;;;;;;;4.97;1.52;;;18.00;99.90;;;;;;5046995;28;20049;-69
2022/07/10 10:58:37;;;;;;;2.55;1.33;;;18.00;99.90;;;;;;5046426;28;20131;-69
2022/07/10 11:01:25;;;;;;;4.55;2.15;;;18.10;99.90;;;;;;5048270;28;20025;-67
2022/07/10 11:04:12;;;;;;;3.05;1.42;;;18.00;99.90;;;;;;5058724;28;20044;-67
2022/07/10 11:06:54;;;;;;;3.35;1.33;;;17.90;99.90;;;;;;5045770;28;20099;-66
2022/07/10 11:09:29;;;;;;;3.42;1.30;;;17.50;99.90;;;;;;5056899;28;20044;-66
2022/07/10 11:12:05;;;;;;;2.85;1.50;;;17.70;99.90;;;;;;5042850;28;20050;-67
2022/07/10 11:14:33;;;;;;;6.07;1.95;;;17.90;99.90;;;;;;5044518;28;20057;-66
2022/07/10 11:16:59;;;;;;;5.70;2.00;;;18.20;99.90;;;;;;5032511;28;20079;-67
2022/07/10 11:19:26;;;;;;;6.63;1.90;;;18.40;99.90;;;;;;5048064;28;20069;-67
2022/07/10 11:22:11;;;;;;;5.95;1.80;;;18.50;99.90;;;;;;5047115;28;20112;-68
2022/07/10 11:24:55;;;;;;;5.35;1.55;;;18.10;99.90;;;;;;5047208;28;20041;-69
2022/07/10 11:27:39;;;;;;;4.95;1.65;;;18.30;99.90;;;;;;5046297;28;20518;-68
2022/07/10 11:30:05;;;;;;;5.22;1.75;;;18.10;99.90;;;;;;5031374;28;20083;-66
2022/07/10 11:32:30;;;;;;;6.18;1.65;;;18.10;99.90;;;;;;5048070;28;20072;-68
2022/07/10 11:34:57;;;;;;;4.35;1.67;;;18.30;99.90;;;;;;5047826;28;20076;-69
2022/07/10 11:37:28;;;;;;;4.28;1.88;;;18.50;99.90;;;;;;5038599;28;20041;-69
2022/07/10 11:40:11;;;;;;;6.25;1.70;;;18.70;99.90;;;;;;5009352;28;20046;-66
2022/07/10 11:42:53;;;;;;;3.72;1.30;;;19.00;99.90;;;;;;5027169;28;20120;-67
2022/07/10 11:45:23;;;;;;;7.57;1.60;;;19.20;99.90;;;;;;5001835;28;20399;-66
2022/07/10 11:47:49;;;;;;;3.28;1.30;;;19.20;99.90;;;;;;5009487;28;20128;-67
2022/07/10 11:50:15;;;;;;;4.75;1.50;;;19.30;99.90;;;;;;5029955;28;20128;-67
2022/07/10 11:52:40;;;;;;;4.50;1.42;;;18.60;99.90;;;;;;5029803;28;20095;-67
2022/07/10 11:55:21;;;;;;;3.63;1.30;;;18.40;99.90;;;;;;5011379;28;20040;-66
2022/07/10 11:57:51;;;;;;;5.20;1.85;;;18.20;99.90;;;;;;5012812;28;20041;-67
2022/07/10 12:00:27;;;;;;;3.72;1.58;;;18.10;99.90;;;;;;5012085;28;20049;-67
2022/07/10 12:02:53;;;;;;;3.50;1.58;;;18.20;99.90;;;;;;5028226;28;20044;-67
2022/07/10 12:05:37;;;;;;;5.45;1.75;;;18.30;99.90;;;;;;5026985;28;20442;-67
2022/07/10 12:08:04;;;;;;;5.68;1.60;;;18.60;99.90;;;;;;5027453;28;20042;-67
2022/07/10 12:10:31;;;;;;;4.38;1.42;;;18.90;99.90;;;;;;5026453;28;20030;-67
2022/07/10 12:13:11;;;;;;;6.35;1.88;;;18.90;99.90;;;;;;5023226;28;20091;-67
2022/07/10 12:15:39;;;;;;;3.03;1.00;;;18.50;99.90;;;;;;5025920;28;20045;-67
2022/07/10 12:18:15;;;;;;;5.25;1.40;;;18.60;99.90;;;;;;5021083;28;20423;-67
2022/07/10 12:20:45;;;;;;;3.97;1.38;;;18.40;99.90;;;;;;5009068;28;20068;-67
2022/07/10 12:23:12;;;;;;;3.45;1.20;;;18.30;99.90;;;;;;5012659;28;20040;-68
2022/07/10 12:25:38;;;;;;;2.13;1.20;;;18.10;99.90;;;;;;5027019;28;20060;-68
2022/07/10 12:28:04;;;;;;;5.07;1.63;;;17.90;99.90;;;;;;5027763;28;20049;-67
2022/07/10 12:30:38;;;;;;;5.22;1.60;;;17.90;99.90;;;;;;5008162;28;20037;-67
2022/07/10 12:33:09;;;;;;;4.07;1.40;;;17.90;99.90;;;;;;5022007;28;20057;-67
2022/07/10 12:35:56;;;;;;;4.78;1.70;;;17.90;99.90;;;;;;5025906;28;20091;-67
2022/07/10 12:38:27;;;;;;;4.47;1.88;;;17.80;99.90;;;;;;5031186;28;20081;-67
2022/07/10 12:41:12;;;;;;;5.33;1.60;;;17.70;99.90;;;;;;5048628;28;20048;-67
2022/07/10 12:43:39;;;;;;;7.80;1.80;;;17.60;99.90;;;;;;5022064;28;20878;-67
2022/07/10 12:46:18;;;;;;;3.58;1.70;;;17.40;99.90;;;;;;5030805;28;20068;-67
2022/07/10 12:49:03;;;;;;;3.42;1.85;;;17.50;99.90;;;;;;5058268;28;20452;-67
2022/07/10 12:51:47;;;;;;;3.40;1.63;;;17.60;99.90;;;;;;5036001;28;20041;-67
2022/07/10 12:54:36;;;;;;;2.90;1.70;;;17.80;99.90;;;;;;5030272;28;20048;-67
2022/07/10 12:57:04;;;;;;;5.38;2.10;;;17.90;99.90;;;;;;5048420;28;20485;-67
2022/07/10 12:59:33;;;;;;;6.32;2.10;;;17.90;99.90;;;;;;5049733;28;20454;-67
2022/07/10 13:01:58;;;;;;;3.13;1.50;;;17.90;99.90;;;;;;5052850;28;20076;-67